This is the latest recevied weather packets stored in our database for station/object EA1DB-1. If no packets are shown the sender has not sent any weather packets the latest 10 day(s).
| Time | Temp. | Humidity | Pressure | Rain* | Wind** | Luminosity | Snow |
|---|---|---|---|---|---|---|---|
| 1777796195 | 12.78° C | 93% | 1009.3 hPa | 0 mm | - | - | - |
| 1777791972 | 13.33° C | 93% | 1009.1 hPa | 0 mm | - | - | - |
| 1777790771 | 13.33° C | 92% | 1008.9 hPa | 0 mm | - | - | - |
| 1777787795 | 13.33° C | 92% | 1008.7 hPa | 0 mm | - | - | - |
| 1777779396 | 13.33° C | 92% | 1009 hPa | 0 mm | - | - | - |
| 1777776996 | 13.89° C | 91% | 1009.2 hPa | 0 mm | - | - | - |
| 1777772773 | 13.89° C | 90% | 1009.5 hPa | 0 mm | - | - | - |
| 1777770995 | 13.89° C | 89% | 1009.8 hPa | 0 mm | - | - | - |
| 1777769191 | 13.89° C | 89% | 1010.2 hPa | 0 mm | - | - | - |
| 1777764371 | 14.44° C | 88% | 1010.6 hPa | 0 mm | - | - | - |
| 1777761416 | 14.44° C | 88% | 1010.7 hPa | 0 mm | - | - | - |
| 1777758372 | 14.44° C | 87% | 1011.1 hPa | 0 mm | - | - | - |
| 1777755395 | 14.44° C | 86% | 1011 hPa | 0 mm | - | - | - |
| 1777754772 | 14.44° C | 85% | 1010.8 hPa | 0 mm | - | - | - |
| 1777752371 | 15.56° C | 83% | 1010.6 hPa | 0 mm | - | - | - |
| 1777749971 | 15.56° C | 78% | 1010.6 hPa | 0 mm | - | - | - |
| 1777746372 | 16.11° C | 74% | 1010.5 hPa | 0 mm | - | - | - |
| 1777745796 | 16.11° C | 74% | 1010.4 hPa | 0 mm | - | - | - |
| 1777745171 | 16.67° C | 73% | 1010.5 hPa | 0 mm | - | - | - |
| 1777737972 | 17.78° C | 66% | 1010.6 hPa | 0 mm | - | - | - |
| 1777733795 | 17.78° C | 71% | 1011 hPa | 0 mm | - | - | - |
| 1777733172 | 17.22° C | 72% | 1011.1 hPa | 0 mm | - | - | - |
| 1777730772 | 16.67° C | 74% | 1011.6 hPa | 0 mm | - | - | - |
| 1777729016 | 17.78° C | 62% | 1011.8 hPa | 0 mm | - | - | - |
| 1777724196 | 18.33° C | 64% | 1011.6 hPa | 0 mm | - | - | - |
* Rain latest hour (hover to see other rain measurements)
** Current wind speed in m/s (hover to see current wind gust speed)